الصفحة الرئيسية
METAR-TAF:

METAR-TAF

مطار :

مطار توزر نفطة الدولي

توزر, تونس

دائرة عرض: 33-55N, خط طول: 008-06E, ارتفاع: 87 متر

مراقبة الطقس الحالي

تاريخ ووقت الإصدار 16 دقيقة قبل الساعة 13:00UTC
ريح 15 عقدة من الغرب
درجة الحرارة 13°درجة مئوية
الرطوبة 47%
ضغط 1003 hPa
الرؤية 10 كم أو أكثر
غيوم متفرقة على ارتفاع 3000 قدم

METAR: DTTZ 231300Z 27015KT 9999 SCT030 13/02 Q1003 NOSIG

زمن: 14:16 (13:16 UTC)

توقعات

تاريخ ووقت الإصدار 2ساعات و 16 دقيقة قبل الساعة 11:00UTC
التوقعات صالحة من23 الساعة 12 UTC إلى 24 الساعة 12 UTC
ريح 14 عقدة من الغرب
الرؤية 10 كم أو أكثر
غيوم متفرقة على ارتفاع 3000 قدم
أصبح
من 23 الساعة 18 UTC إلى 23 الساعة 20 UTC
ريح 25 عقدة من الغرب
نظرية الاحتمالات 40% :
مؤقت
من 23 الساعة 18 UTC إلى 24 الساعة 12 UTC
ريح 25 عقدة من الغرب تتزايد حتى 35 عقدة
الرؤية: 2000 متر
رمل

TAF: DTTZ 231100Z 2312/2412 26014KT 9999 SCT030 BECMG 2318/2320 26025KT PROB40 TEMPO 2318/2412 26025G35KT 2000 SA

أرصاد الطقس والتوقعات من أكثر من 4000 مطار (تقارير الطقس للمطار METAR والتنبؤ بالطقس بالمطارTAF).

المحطات المتاحة هي النقط الصفراء والحمراء على الخريطة.

حرك المؤشر فوق النقطة لمعرفة اسم المحطة.

ثم انقر لمعرفة أرصاد وتوقعات الطقس.

لتغيير الخارطة: اضغط على الأزرار الخضراء مع رمز الصليب الأسود للتكبير. على الزر الأخضر مع شرطة للتصغير، أو على الأسهم الخضراء للخرائط المجاورة.


METAR-TAF: